Terminal Aerodrome Forecast
Issued by NWS Jackson, KY

Home | Current Version | Previous Version | Text Only | Print | Product List | Glossary On
Versions: 1 2 3 4 5 6 7 8 9 10 11 12 13 14 15 16 17 18 19
547
FTUS43 KJKL 181127 CCA
TAFLOZ
TAF COR
KLOZ 181127Z 1812/1912 VRB03KT 1/2SM FG BKN001
     FM181300 VRB03KT 4SM BR BKN002
     FM181400 VRB03KT P6SM FEW040 SCT130
     FM191000 VRB03KT 3SM BR BKN001=

USA.gov is the U.S. government's official web portal to all federal, state and local government web resources and services.